createdAt,value
2017-08-20T00:00:08.867Z,0
2017-08-20T00:01:17.912Z,0
2017-08-20T00:02:26.870Z,0
2017-08-20T00:03:35.894Z,0
2017-08-20T00:04:44.961Z,0
2017-08-20T00:05:54.087Z,0
2017-08-20T00:07:03.084Z,0
2017-08-20T00:08:12.238Z,0
2017-08-20T00:09:21.815Z,0
2017-08-20T00:10:30.908Z,0
2017-08-20T00:11:39.976Z,0
2017-08-20T00:12:48.928Z,0
2017-08-20T00:13:57.951Z,0
2017-08-20T00:15:06.952Z,0
2017-08-20T00:16:15.996Z,0
2017-08-20T00:17:25.059Z,0
2017-08-20T00:18:34.162Z,0
2017-08-20T00:19:43.117Z,0
2017-08-20T00:20:52.125Z,0
2017-08-20T00:22:01.211Z,0
2017-08-20T00:23:10.169Z,0
2017-08-20T00:24:19.119Z,0
2017-08-20T00:25:28.108Z,0
2017-08-20T00:26:37.168Z,0
2017-08-20T00:27:46.130Z,0
2017-08-20T00:28:55.529Z,0
2017-08-20T00:30:04.524Z,0
2017-08-20T00:31:13.494Z,0
2017-08-20T00:32:22.491Z,0
2017-08-20T00:33:31.538Z,0
2017-08-20T00:34:40.512Z,0
2017-08-20T00:35:49.920Z,0
2017-08-20T00:36:58.938Z,0
2017-08-20T00:38:08.044Z,0
2017-08-20T00:39:17.157Z,0
2017-08-20T00:40:26.110Z,0
2017-08-20T00:41:35.156Z,0
2017-08-20T00:42:44.167Z,0
2017-08-20T00:43:53.243Z,0
2017-08-20T00:45:02.285Z,0
2017-08-20T00:46:11.312Z,0
2017-08-20T00:47:20.302Z,0
2017-08-20T00:48:29.316Z,0
2017-08-20T00:49:38.342Z,0
2017-08-20T00:50:47.386Z,0
2017-08-20T00:51:56.365Z,0
2017-08-20T00:53:05.496Z,0
2017-08-20T00:54:14.456Z,0
2017-08-20T00:55:23.776Z,0
2017-08-20T00:56:32.863Z,0
2017-08-20T00:57:41.813Z,0
2017-08-20T00:58:50.858Z,0
2017-08-20T00:59:59.932Z,0
2017-08-20T01:01:08.905Z,0
2017-08-20T01:02:18.259Z,0
2017-08-20T01:03:27.301Z,0
2017-08-20T01:04:36.267Z,0
2017-08-20T01:05:45.345Z,0
2017-08-20T01:06:54.388Z,0
2017-08-20T01:08:03.462Z,0
2017-08-20T01:09:12.454Z,0
2017-08-20T01:10:21.466Z,0
2017-08-20T01:11:30.413Z,0
2017-08-20T01:12:39.474Z,0
2017-08-20T01:13:48.551Z,0
2017-08-20T01:14:57.618Z,0
2017-08-20T01:16:06.700Z,0
2017-08-20T01:17:15.764Z,0
2017-08-20T01:18:24.751Z,0
2017-08-20T01:19:33.792Z,0
2017-08-20T01:20:42.935Z,0
2017-08-20T01:21:51.888Z,0
2017-08-20T01:23:00.947Z,0
2017-08-20T01:24:09.934Z,0
2017-08-20T01:25:18.975Z,0
2017-08-20T01:26:27.998Z,0
2017-08-20T01:27:37.143Z,0
2017-08-20T01:28:46.098Z,0
2017-08-20T01:29:55.202Z,0
2017-08-20T01:31:04.221Z,0
2017-08-20T01:32:13.173Z,0
2017-08-20T01:33:22.162Z,0
2017-08-20T01:34:31.485Z,0
2017-08-20T01:35:40.437Z,0
2017-08-20T01:36:49.510Z,0
2017-08-20T01:37:58.571Z,0
2017-08-20T01:39:07.563Z,0
2017-08-20T01:40:16.686Z,0
2017-08-20T01:41:25.674Z,0
2017-08-20T01:42:34.628Z,0
2017-08-20T01:43:43.633Z,0
2017-08-20T01:44:52.930Z,0
2017-08-20T01:46:01.886Z,0
2017-08-20T01:47:10.990Z,0
2017-08-20T01:48:20.017Z,0
2017-08-20T01:49:29.287Z,0
2017-08-20T01:50:38.347Z,0
2017-08-20T01:51:47.448Z,0
2017-08-20T01:52:56.395Z,0
2017-08-20T01:54:05.349Z,0
2017-08-20T01:55:14.415Z,0
2017-08-20T01:56:23.368Z,0
2017-08-20T01:57:32.463Z,0
2017-08-20T01:58:41.505Z,0
2017-08-20T01:59:50.670Z,0
2017-08-20T02:00:59.678Z,0
2017-08-20T02:02:08.812Z,0
2017-08-20T02:03:17.765Z,0
2017-08-20T02:04:26.722Z,0
2017-08-20T02:05:35.676Z,0
2017-08-20T02:06:44.629Z,0
2017-08-20T02:07:53.581Z,0
2017-08-20T02:09:02.529Z,0
2017-08-20T02:10:11.808Z,0
2017-08-20T02:11:21.080Z,0
2017-08-20T02:12:30.036Z,0
2017-08-20T02:13:38.986Z,0
2017-08-20T02:14:47.935Z,0
2017-08-20T02:15:56.882Z,0
2017-08-20T02:17:05.918Z,0
2017-08-20T02:18:14.869Z,0
2017-08-20T02:19:23.820Z,0
2017-08-20T02:20:32.774Z,0
2017-08-20T02:21:41.724Z,0
2017-08-20T02:22:50.674Z,0
2017-08-20T02:23:59.621Z,0
2017-08-20T02:25:08.578Z,0
2017-08-20T02:26:17.530Z,0
2017-08-20T02:27:26.487Z,0
2017-08-20T02:28:35.443Z,0
2017-08-20T02:29:44.395Z,0
2017-08-20T02:30:53.991Z,0
2017-08-20T02:32:02.940Z,0
2017-08-20T02:33:11.893Z,0
2017-08-20T02:34:20.844Z,0
2017-08-20T02:35:29.800Z,0
2017-08-20T02:36:38.760Z,0
2017-08-20T02:37:48.032Z,0
2017-08-20T02:38:56.990Z,0
2017-08-20T02:40:05.944Z,0
2017-08-20T02:41:14.908Z,0
2017-08-20T02:42:23.868Z,0
2017-08-20T02:43:32.820Z,0
2017-08-20T02:44:41.775Z,0
2017-08-20T02:45:50.737Z,0
2017-08-20T02:47:00.011Z,0
2017-08-20T02:48:09.290Z,0
2017-08-20T02:49:18.239Z,0
2017-08-20T02:50:27.192Z,0
2017-08-20T02:51:36.141Z,0
2017-08-20T02:52:45.092Z,0
2017-08-20T02:53:54.044Z,0
2017-08-20T02:55:02.994Z,0
2017-08-20T02:56:11.939Z,0
2017-08-20T02:57:20.888Z,0
2017-08-20T02:58:29.847Z,0
2017-08-20T02:59:38.808Z,0
2017-08-20T03:00:47.773Z,0
2017-08-20T03:01:56.722Z,0
2017-08-20T03:03:05.671Z,0
2017-08-20T03:04:14.953Z,0
2017-08-20T03:05:23.900Z,0
2017-08-20T03:06:32.852Z,0
2017-08-20T03:07:41.814Z,0
2017-08-20T03:08:50.772Z,0
2017-08-20T03:09:59.724Z,0
2017-08-20T03:11:08.678Z,0
2017-08-20T03:12:17.632Z,0
2017-08-20T03:13:26.589Z,0
2017-08-20T03:14:35.537Z,0
2017-08-20T03:15:44.482Z,0
2017-08-20T03:16:53.435Z,0
2017-08-20T03:18:02.388Z,0
2017-08-20T03:19:11.342Z,0
2017-08-20T03:20:20.300Z,0
2017-08-20T03:21:29.251Z,0
2017-08-20T03:22:38.202Z,0
2017-08-20T03:23:47.149Z,0
2017-08-20T03:24:56.105Z,0
2017-08-20T03:26:05.055Z,0
2017-08-20T03:27:14.015Z,0
2017-08-20T03:28:23.286Z,0
2017-08-20T03:29:32.233Z,0
2017-08-20T03:30:41.185Z,0
2017-08-20T03:31:50.148Z,0
2017-08-20T03:32:59.094Z,0
2017-08-20T03:34:08.069Z,0
2017-08-20T03:35:17.022Z,0
2017-08-20T03:36:25.970Z,0
2017-08-20T03:37:34.923Z,0
2017-08-20T03:38:43.876Z,0
2017-08-20T03:39:52.826Z,0
2017-08-20T03:41:01.777Z,0
2017-08-20T03:42:10.730Z,0
2017-08-20T03:43:19.678Z,0
2017-08-20T03:44:28.621Z,0
2017-08-20T03:45:37.574Z,0
2017-08-20T03:46:46.844Z,0
2017-08-20T03:47:55.796Z,0
2017-08-20T03:49:04.744Z,0
2017-08-20T03:50:13.692Z,0
2017-08-20T03:51:22.651Z,0
2017-08-20T03:52:31.603Z,0
2017-08-20T03:53:40.555Z,0
2017-08-20T03:54:49.504Z,0
2017-08-20T03:55:58.769Z,0
2017-08-20T03:57:07.713Z,0
2017-08-20T03:58:16.657Z,0
2017-08-20T03:59:25.604Z,0
2017-08-20T04:00:34.551Z,0
2017-08-20T04:01:43.499Z,0
2017-08-20T04:02:52.449Z,0
2017-08-20T04:04:01.397Z,0
2017-08-20T04:05:10.351Z,0
2017-08-20T04:06:19.620Z,0
2017-08-20T04:07:28.574Z,0
2017-08-20T04:08:37.523Z,0
2017-08-20T04:09:46.473Z,0
2017-08-20T04:10:55.430Z,0
2017-08-20T04:12:04.384Z,0
2017-08-20T04:13:13.338Z,0
2017-08-20T04:14:22.293Z,0
2017-08-20T04:15:31.244Z,0
2017-08-20T04:16:40.190Z,0
2017-08-20T04:17:49.137Z,0
2017-08-20T04:18:58.083Z,0
2017-08-20T04:20:07.036Z,0
2017-08-20T04:21:15.989Z,0
2017-08-20T04:22:24.940Z,0
2017-08-20T04:23:33.890Z,0
2017-08-20T04:24:42.837Z,0
2017-08-20T04:25:51.786Z,0
2017-08-20T04:27:00.755Z,0
2017-08-20T04:28:10.032Z,0
2017-08-20T04:29:18.988Z,0
2017-08-20T04:30:27.963Z,0
2017-08-20T04:31:36.911Z,0
2017-08-20T04:32:45.861Z,0
2017-08-20T04:33:54.807Z,0
2017-08-20T04:35:03.756Z,0
2017-08-20T04:36:12.705Z,0
2017-08-20T04:37:21.656Z,0
2017-08-20T04:38:30.605Z,0
2017-08-20T04:39:39.873Z,5
2017-08-20T04:40:48.819Z,5
2017-08-20T04:41:57.763Z,5
2017-08-20T04:43:06.713Z,5
2017-08-20T04:44:15.667Z,5
2017-08-20T04:45:24.610Z,5
2017-08-20T04:46:33.558Z,5
2017-08-20T04:47:42.505Z,5
2017-08-20T04:48:51.452Z,5
2017-08-20T04:50:00.409Z,5
2017-08-20T04:51:09.368Z,5
2017-08-20T04:52:18.321Z,5
2017-08-20T04:53:27.269Z,5
2017-08-20T04:54:36.222Z,5
2017-08-20T04:55:45.179Z,5
2017-08-20T04:56:54.130Z,5
2017-08-20T04:58:03.078Z,5
2017-08-20T04:59:12.035Z,5
2017-08-20T05:00:21.000Z,5
2017-08-20T05:01:30.291Z,5
2017-08-20T05:02:39.249Z,5
2017-08-20T05:03:48.199Z,5
2017-08-20T05:04:57.149Z,5
2017-08-20T05:06:06.099Z,5
2017-08-20T05:07:15.053Z,5
2017-08-20T05:08:24.002Z,5
2017-08-20T05:09:32.962Z,5
2017-08-20T05:10:41.918Z,5
2017-08-20T05:11:50.866Z,5
2017-08-20T05:12:59.821Z,5
2017-08-20T05:14:08.767Z,5
2017-08-20T05:15:17.713Z,10
2017-08-20T05:16:26.667Z,10
2017-08-20T05:17:35.616Z,10
2017-08-20T05:18:44.574Z,10
2017-08-20T05:19:53.526Z,10
2017-08-20T05:21:02.474Z,10
2017-08-20T05:22:11.427Z,10
2017-08-20T05:23:20.381Z,10
2017-08-20T05:24:29.328Z,10
2017-08-20T05:25:38.604Z,10
2017-08-20T05:26:47.554Z,10
2017-08-20T05:27:56.500Z,10
2017-08-20T05:29:05.449Z,10
2017-08-20T05:30:14.407Z,15
2017-08-20T05:31:23.362Z,15
2017-08-20T05:32:32.307Z,15
2017-08-20T05:33:41.250Z,15
2017-08-20T05:34:50.196Z,15
2017-08-20T05:35:59.152Z,15
2017-08-20T05:37:08.102Z,15
2017-08-20T05:38:17.059Z,15
2017-08-20T05:39:26.006Z,15
2017-08-20T05:40:35.275Z,15
2017-08-20T05:41:44.226Z,15
2017-08-20T05:42:53.176Z,15
2017-08-20T05:44:02.122Z,20
2017-08-20T05:45:11.070Z,20
2017-08-20T05:46:20.022Z,20
2017-08-20T05:47:28.977Z,20
2017-08-20T05:48:37.924Z,20
2017-08-20T05:49:46.872Z,20
2017-08-20T05:50:55.818Z,20
2017-08-20T05:52:04.781Z,20
2017-08-20T05:53:13.728Z,20
2017-08-20T05:54:22.676Z,20
2017-08-20T05:55:31.653Z,20
2017-08-20T05:56:40.607Z,20
2017-08-20T05:57:49.555Z,20
2017-08-20T05:58:58.507Z,20
2017-08-20T06:00:07.455Z,25
2017-08-20T06:01:16.409Z,25
2017-08-20T06:02:25.361Z,25
2017-08-20T06:03:34.307Z,25
2017-08-20T06:04:43.274Z,25
2017-08-20T06:05:52.553Z,25
2017-08-20T06:07:01.504Z,25
2017-08-20T06:08:10.452Z,25
2017-08-20T06:09:19.399Z,25
2017-08-20T06:10:28.349Z,25
2017-08-20T06:11:37.305Z,25
2017-08-20T06:12:46.253Z,25
2017-08-20T06:13:55.244Z,25
2017-08-20T06:15:04.549Z,25
2017-08-20T06:16:13.499Z,25
2017-08-20T06:17:22.447Z,25
2017-08-20T06:18:31.397Z,30
2017-08-20T06:19:40.351Z,25
2017-08-20T06:20:49.300Z,25
2017-08-20T06:21:58.251Z,25
2017-08-20T06:23:07.209Z,25
2017-08-20T06:24:16.161Z,25
2017-08-20T06:25:25.110Z,25
2017-08-20T06:26:34.054Z,25
2017-08-20T06:27:43.329Z,30
2017-08-20T06:28:52.278Z,30
2017-08-20T06:30:01.230Z,30
2017-08-20T06:31:10.187Z,30
2017-08-20T06:32:19.133Z,30
2017-08-20T06:33:28.100Z,30
2017-08-20T06:34:37.047Z,30
2017-08-20T06:35:45.992Z,30
2017-08-20T06:36:54.942Z,30
2017-08-20T06:38:03.888Z,30
2017-08-20T06:39:12.839Z,30
2017-08-20T06:40:21.789Z,30
2017-08-20T06:41:30.753Z,30
2017-08-20T06:42:39.707Z,30
2017-08-20T06:43:48.658Z,30
2017-08-20T06:44:57.608Z,30
2017-08-20T06:46:06.564Z,30
2017-08-20T06:47:15.512Z,30
2017-08-20T06:48:24.467Z,30
2017-08-20T06:49:33.742Z,30
2017-08-20T06:50:42.685Z,35
2017-08-20T06:51:51.636Z,35
2017-08-20T06:53:00.592Z,35
2017-08-20T06:54:09.835Z,35
2017-08-20T06:55:19.003Z,35
2017-08-20T06:56:27.955Z,35
2017-08-20T06:57:36.902Z,35
2017-08-20T06:58:45.851Z,35
2017-08-20T06:59:54.802Z,35
2017-08-20T07:01:03.769Z,35
2017-08-20T07:02:12.719Z,35
2017-08-20T07:03:21.997Z,35
2017-08-20T07:04:30.947Z,35
2017-08-20T07:05:39.899Z,35
2017-08-20T07:06:49.172Z,35
2017-08-20T07:07:58.120Z,35
2017-08-20T07:09:07.070Z,35
2017-08-20T07:10:16.043Z,35
2017-08-20T07:11:24.991Z,35
2017-08-20T07:12:33.976Z,35
2017-08-20T07:13:42.947Z,35
2017-08-20T07:14:51.900Z,35
2017-08-20T07:16:00.844Z,35
2017-08-20T07:17:09.870Z,35
2017-08-20T07:18:18.825Z,35
2017-08-20T07:19:28.107Z,35
2017-08-20T07:20:37.060Z,35
2017-08-20T07:21:46.013Z,35
2017-08-20T07:22:54.968Z,35
2017-08-20T07:24:03.927Z,35
2017-08-20T07:25:13.197Z,35
2017-08-20T07:26:22.144Z,35
2017-08-20T07:27:31.113Z,35
2017-08-20T07:28:41.039Z,35
2017-08-20T07:29:50.097Z,35
2017-08-20T07:30:59.106Z,35
2017-08-20T07:32:08.146Z,35
2017-08-20T07:33:17.122Z,35
2017-08-20T07:34:26.263Z,35
2017-08-20T07:35:35.217Z,35
2017-08-20T07:36:44.241Z,35
2017-08-20T07:37:53.470Z,35
2017-08-20T07:39:02.507Z,40
2017-08-20T07:40:11.455Z,40
2017-08-20T07:41:20.412Z,35
2017-08-20T07:42:29.365Z,35
2017-08-20T07:43:38.319Z,40
2017-08-20T07:44:47.271Z,40
2017-08-20T07:45:56.224Z,40
2017-08-20T07:47:05.182Z,35
2017-08-20T07:48:14.140Z,40
2017-08-20T07:49:23.177Z,40
2017-08-20T07:50:32.122Z,40
2017-08-20T07:51:41.136Z,40
2017-08-20T07:52:50.103Z,40
2017-08-20T07:53:59.078Z,40
2017-08-20T07:55:08.030Z,40
2017-08-20T07:56:17.399Z,40
2017-08-20T07:57:26.459Z,40
2017-08-20T07:58:35.493Z,45
2017-08-20T07:59:44.445Z,45
2017-08-20T08:00:53.393Z,45
2017-08-20T08:02:02.342Z,45
2017-08-20T08:03:11.297Z,45
2017-08-20T08:04:20.255Z,45
2017-08-20T08:05:29.562Z,50
2017-08-20T08:06:38.639Z,50
2017-08-20T08:07:47.597Z,45
2017-08-20T08:08:56.549Z,50
2017-08-20T08:10:05.502Z,45
2017-08-20T08:11:14.583Z,50
2017-08-20T08:12:23.534Z,55
2017-08-20T08:13:32.512Z,50
2017-08-20T08:14:41.814Z,55
2017-08-20T08:15:50.780Z,60
2017-08-20T08:16:59.757Z,70
2017-08-20T08:18:08.747Z,75
2017-08-20T08:19:18.047Z,75
2017-08-20T08:20:27.019Z,75
2017-08-20T08:21:35.998Z,80
2017-08-20T08:22:44.970Z,90
2017-08-20T08:23:53.942Z,75
2017-08-20T08:25:02.911Z,65
2017-08-20T08:26:11.880Z,65
2017-08-20T08:27:21.550Z,60
2017-08-20T08:28:30.501Z,40
2017-08-20T08:29:39.520Z,55
2017-08-20T08:30:48.475Z,50
2017-08-20T08:31:57.745Z,45
2017-08-20T08:33:06.703Z,50
2017-08-20T08:34:15.656Z,45
2017-08-20T08:35:24.617Z,50
2017-08-20T08:36:33.571Z,55
2017-08-20T08:37:42.542Z,50
2017-08-20T08:38:51.517Z,55
2017-08-20T08:40:00.495Z,55
2017-08-20T08:41:09.474Z,55
2017-08-20T08:42:18.446Z,55
2017-08-20T08:43:27.427Z,55
2017-08-20T08:44:36.407Z,55
2017-08-20T08:45:45.378Z,50
2017-08-20T08:46:54.361Z,50
2017-08-20T08:48:03.341Z,55
2017-08-20T08:49:12.317Z,55
2017-08-20T08:50:21.296Z,55
2017-08-20T08:51:30.265Z,55
2017-08-20T08:52:39.238Z,55
2017-08-20T08:53:48.214Z,60
2017-08-20T08:54:57.199Z,60
2017-08-20T08:56:06.166Z,55
2017-08-20T08:57:15.137Z,55
2017-08-20T08:58:24.111Z,55
2017-08-20T08:59:33.087Z,60
2017-08-20T09:00:42.088Z,60
2017-08-20T09:01:51.041Z,70
2017-08-20T09:03:00.103Z,85
2017-08-20T09:04:09.191Z,85
2017-08-20T09:05:18.143Z,70
2017-08-20T09:06:27.089Z,65
2017-08-20T09:07:36.039Z,65
2017-08-20T09:08:44.984Z,65
2017-08-20T09:09:53.936Z,70
2017-08-20T09:11:02.886Z,70
2017-08-20T09:12:11.837Z,95
2017-08-20T09:13:20.799Z,45
2017-08-20T09:14:30.096Z,45
2017-08-20T09:15:39.448Z,55
2017-08-20T09:16:48.447Z,55
2017-08-20T09:17:57.419Z,30
2017-08-20T09:19:06.520Z,75
2017-08-20T09:20:15.468Z,80
2017-08-20T09:21:24.419Z,85
2017-08-20T09:22:33.694Z,45
2017-08-20T09:23:42.723Z,25
2017-08-20T09:24:51.903Z,20
2017-08-20T09:26:00.882Z,30
2017-08-20T09:27:09.866Z,50
2017-08-20T09:28:18.901Z,75
2017-08-20T09:29:27.891Z,80
2017-08-20T09:30:36.934Z,60
2017-08-20T09:31:45.964Z,35
2017-08-20T09:32:54.918Z,20
2017-08-20T09:34:03.874Z,20
2017-08-20T09:35:12.825Z,25
2017-08-20T09:36:21.775Z,30
2017-08-20T09:37:31.058Z,25
2017-08-20T09:38:40.017Z,25
2017-08-20T09:39:48.964Z,35
2017-08-20T09:40:57.917Z,55
2017-08-20T09:42:06.885Z,65
2017-08-20T09:43:15.842Z,50
2017-08-20T09:44:25.308Z,75
2017-08-20T09:45:34.259Z,95
2017-08-20T09:46:43.264Z,90
2017-08-20T09:47:52.309Z,80
2017-08-20T09:49:01.347Z,55
2017-08-20T09:50:10.324Z,55
2017-08-20T09:51:19.295Z,50
2017-08-20T09:52:28.245Z,55
2017-08-20T09:53:37.203Z,70
2017-08-20T09:54:46.163Z,60
2017-08-20T09:55:55.126Z,70
2017-08-20T09:57:04.082Z,60
2017-08-20T09:58:13.034Z,70
2017-08-20T09:59:21.996Z,100
2017-08-20T10:00:30.979Z,95
2017-08-20T10:01:40.260Z,90
2017-08-20T10:02:49.212Z,90
2017-08-20T10:03:58.164Z,90
2017-08-20T10:05:07.170Z,95
2017-08-20T10:06:16.129Z,100
2017-08-20T10:07:25.086Z,85
2017-08-20T10:08:34.036Z,95
2017-08-20T10:09:43.314Z,80
2017-08-20T10:10:52.281Z,85
2017-08-20T10:12:01.260Z,95
2017-08-20T10:13:10.211Z,85
2017-08-20T10:14:19.165Z,90
2017-08-20T10:15:28.127Z,90
2017-08-20T10:16:37.084Z,95
2017-08-20T10:17:46.362Z,120
2017-08-20T10:18:55.327Z,95
2017-08-20T10:20:04.298Z,90
2017-08-20T10:21:13.246Z,90
2017-08-20T10:22:22.213Z,95
2017-08-20T10:23:31.179Z,95
2017-08-20T10:24:40.144Z,95
2017-08-20T10:25:49.109Z,105
2017-08-20T10:26:58.075Z,70
2017-08-20T10:28:07.030Z,45
2017-08-20T10:29:15.997Z,35
2017-08-20T10:30:24.976Z,30
2017-08-20T10:31:33.947Z,25
2017-08-20T10:32:42.914Z,25
2017-08-20T10:33:51.872Z,15
2017-08-20T10:35:00.837Z,10
2017-08-20T10:36:09.790Z,10
2017-08-20T10:37:18.755Z,10
2017-08-20T10:38:27.741Z,15
2017-08-20T10:39:36.759Z,15
2017-08-20T10:40:45.729Z,20
2017-08-20T10:41:55.010Z,20
2017-08-20T10:43:03.984Z,25
2017-08-20T10:44:13.054Z,25
2017-08-20T10:45:22.020Z,30
2017-08-20T10:46:30.982Z,30
2017-08-20T10:47:40.268Z,30
2017-08-20T10:48:49.229Z,30
2017-08-20T10:49:58.217Z,30
2017-08-20T10:51:07.187Z,35
2017-08-20T10:52:16.463Z,45
2017-08-20T10:53:25.426Z,45
2017-08-20T10:54:34.389Z,50
2017-08-20T10:55:43.353Z,50
2017-08-20T10:56:52.325Z,50
2017-08-20T10:58:01.338Z,50
2017-08-20T10:59:10.359Z,50
2017-08-20T11:00:19.311Z,50
2017-08-20T11:01:28.267Z,50
2017-08-20T11:02:37.384Z,50
2017-08-20T11:03:46.340Z,55
2017-08-20T11:04:55.628Z,55
2017-08-20T11:06:04.585Z,55
2017-08-20T11:07:13.574Z,60
2017-08-20T11:08:22.541Z,90
2017-08-20T11:09:31.499Z,95
2017-08-20T11:10:40.458Z,105
2017-08-20T11:11:49.419Z,105
2017-08-20T11:12:58.377Z,95
2017-08-20T11:14:07.341Z,80
2017-08-20T11:15:16.392Z,70
2017-08-20T11:16:25.343Z,65
2017-08-20T11:17:34.298Z,65
2017-08-20T11:18:43.250Z,60
2017-08-20T11:19:52.542Z,60
2017-08-20T11:21:01.498Z,60
2017-08-20T11:22:10.458Z,60
2017-08-20T11:23:19.421Z,60
2017-08-20T11:24:28.376Z,60
2017-08-20T11:25:37.340Z,60
2017-08-20T11:26:46.309Z,70
2017-08-20T11:27:55.270Z,75
2017-08-20T11:29:04.233Z,75
2017-08-20T11:30:13.187Z,70
2017-08-20T11:31:22.162Z,80
2017-08-20T11:32:31.450Z,55
2017-08-20T11:33:40.409Z,50
2017-08-20T11:34:49.373Z,45
2017-08-20T11:35:58.330Z,45
2017-08-20T11:37:07.296Z,50
2017-08-20T11:38:16.581Z,50
2017-08-20T11:39:25.864Z,85
2017-08-20T11:40:34.817Z,55
2017-08-20T11:41:43.775Z,50
2017-08-20T11:42:52.828Z,70
2017-08-20T11:44:01.806Z,60
2017-08-20T11:45:10.769Z,55
2017-08-20T11:46:19.730Z,65
2017-08-20T11:47:28.686Z,65
2017-08-20T11:48:37.643Z,50
2017-08-20T11:49:46.595Z,45
2017-08-20T11:50:55.562Z,55
2017-08-20T11:52:04.520Z,55
2017-08-20T11:53:13.477Z,55
2017-08-20T11:54:22.442Z,55
2017-08-20T11:55:31.403Z,55
2017-08-20T11:56:40.360Z,60
2017-08-20T11:57:49.637Z,65
2017-08-20T11:58:58.599Z,60
2017-08-20T12:00:07.560Z,60
2017-08-20T12:01:16.531Z,55
2017-08-20T12:02:25.488Z,50
2017-08-20T12:03:34.437Z,55
2017-08-20T12:04:43.429Z,55
2017-08-20T12:05:52.389Z,25
2017-08-20T12:07:01.674Z,55
2017-08-20T12:08:10.634Z,55
2017-08-20T12:09:19.594Z,55
2017-08-20T12:10:28.552Z,55
2017-08-20T12:11:37.523Z,25
2017-08-20T12:12:46.483Z,25
2017-08-20T12:13:55.464Z,30
2017-08-20T12:15:04.747Z,55
2017-08-20T12:16:13.707Z,60
2017-08-20T12:17:22.672Z,55
2017-08-20T12:18:31.638Z,55
2017-08-20T12:19:40.604Z,40
2017-08-20T12:20:49.898Z,60
2017-08-20T12:21:58.859Z,75
2017-08-20T12:23:07.817Z,50
2017-08-20T12:24:16.773Z,80
2017-08-20T12:25:25.737Z,70
2017-08-20T12:26:34.695Z,40
2017-08-20T12:27:43.661Z,40
2017-08-20T12:28:52.618Z,40
2017-08-20T12:30:01.581Z,30
2017-08-20T12:31:10.575Z,25
2017-08-20T12:32:19.536Z,35
2017-08-20T12:33:28.498Z,40
2017-08-20T12:34:39.554Z,35
2017-08-20T12:35:48.536Z,35
2017-08-20T12:36:57.507Z,45
2017-08-20T12:38:06.931Z,40
2017-08-20T12:39:16.223Z,50
2017-08-20T12:40:25.340Z,65
2017-08-20T12:41:34.315Z,65
2017-08-20T12:42:43.629Z,70
2017-08-20T12:43:52.588Z,55
2017-08-20T12:45:02.121Z,85
2017-08-20T12:46:12.084Z,75
2017-08-20T12:47:21.933Z,60
2017-08-20T12:48:31.857Z,60
2017-08-20T12:49:42.763Z,55
2017-08-20T12:50:51.918Z,30
2017-08-20T12:52:10.249Z,45
2017-08-20T12:53:20.434Z,30
2017-08-20T12:54:29.957Z,40
2017-08-20T12:55:39.172Z,40
2017-08-20T12:56:48.525Z,35
2017-08-20T12:57:57.941Z,65
2017-08-20T12:59:07.302Z,70
2017-08-20T13:00:16.632Z,70
2017-08-20T13:01:26.524Z,65
2017-08-20T13:02:35.768Z,70
2017-08-20T13:03:44.851Z,75
2017-08-20T13:04:53.825Z,85
2017-08-20T13:06:03.689Z,60
2017-08-20T13:07:13.231Z,45
2017-08-20T13:08:22.268Z,50
2017-08-20T13:09:31.255Z,55
2017-08-20T13:10:40.211Z,50
2017-08-20T13:11:49.172Z,55
2017-08-20T13:12:58.141Z,65
2017-08-20T13:14:07.416Z,60
2017-08-20T13:15:16.378Z,65
2017-08-20T13:16:25.339Z,65
2017-08-20T13:17:34.301Z,60
2017-08-20T13:18:43.263Z,55
2017-08-20T13:19:52.220Z,55
2017-08-20T13:21:01.181Z,55
2017-08-20T13:22:10.134Z,55
2017-08-20T13:23:19.093Z,55
2017-08-20T13:24:28.053Z,55
2017-08-20T13:25:37.015Z,55
2017-08-20T13:26:46.293Z,55
2017-08-20T13:27:55.337Z,55
2017-08-20T13:29:04.305Z,55
2017-08-20T13:30:13.268Z,55
2017-08-20T13:31:22.561Z,55
2017-08-20T13:32:31.529Z,60
2017-08-20T13:33:40.483Z,60
2017-08-20T13:34:49.478Z,60
2017-08-20T13:35:58.445Z,60
2017-08-20T13:37:07.467Z,60
2017-08-20T13:38:16.574Z,65
2017-08-20T13:39:25.532Z,65
2017-08-20T13:40:34.513Z,65
2017-08-20T13:41:43.624Z,45
2017-08-20T13:42:52.634Z,70
2017-08-20T13:44:01.592Z,45
2017-08-20T13:45:10.878Z,45
2017-08-20T13:46:19.890Z,45
2017-08-20T13:47:29.204Z,40
2017-08-20T13:48:38.280Z,45
2017-08-20T13:49:47.234Z,45
2017-08-20T13:50:56.205Z,40
2017-08-20T13:52:05.598Z,35
2017-08-20T13:53:14.944Z,35
2017-08-20T13:54:23.912Z,65
2017-08-20T13:55:32.875Z,60
2017-08-20T13:56:41.837Z,70
2017-08-20T13:57:50.796Z,70
2017-08-20T13:59:00.073Z,75
2017-08-20T14:00:09.322Z,80
2017-08-20T14:01:18.355Z,75
2017-08-20T14:02:27.411Z,75
2017-08-20T14:03:36.444Z,70
2017-08-20T14:04:45.406Z,30
2017-08-20T14:05:54.425Z,40
2017-08-20T14:07:03.416Z,65
2017-08-20T14:08:12.806Z,65
2017-08-20T14:09:22.199Z,65
2017-08-20T14:10:31.288Z,65
2017-08-20T14:11:40.699Z,65
2017-08-20T14:12:49.707Z,55
2017-08-20T14:13:58.907Z,40
2017-08-20T14:15:07.915Z,45
2017-08-20T14:16:16.885Z,65
2017-08-20T14:17:25.891Z,60
2017-08-20T14:18:34.946Z,65
2017-08-20T14:19:44.159Z,70
2017-08-20T14:20:53.216Z,70
2017-08-20T14:22:02.192Z,75
2017-08-20T14:23:11.149Z,70
2017-08-20T14:24:20.113Z,70
2017-08-20T14:25:29.069Z,65
2017-08-20T14:26:39.234Z,70
2017-08-20T14:27:48.683Z,40
2017-08-20T14:28:57.645Z,40
2017-08-20T14:30:06.625Z,55
2017-08-20T14:31:15.624Z,50
2017-08-20T14:32:24.951Z,40
2017-08-20T14:33:33.980Z,40
2017-08-20T14:34:42.941Z,70
2017-08-20T14:35:51.912Z,65
2017-08-20T14:37:00.866Z,65
2017-08-20T14:38:09.829Z,45
2017-08-20T14:39:18.793Z,45
2017-08-20T14:40:27.766Z,40
2017-08-20T14:41:36.736Z,25
2017-08-20T14:42:45.700Z,20
2017-08-20T14:43:54.990Z,20
2017-08-20T14:45:03.949Z,15
2017-08-20T14:46:12.917Z,15
2017-08-20T14:47:21.884Z,20
2017-08-20T14:48:30.857Z,15
2017-08-20T14:49:39.818Z,20
2017-08-20T14:50:48.786Z,20
2017-08-20T14:51:57.744Z,30
2017-08-20T14:53:06.704Z,35
2017-08-20T14:54:15.656Z,40
2017-08-20T14:55:24.701Z,45
2017-08-20T14:56:33.666Z,50
2017-08-20T14:57:42.628Z,50
2017-08-20T14:58:51.913Z,45
2017-08-20T15:00:00.868Z,35
2017-08-20T15:01:09.822Z,30
2017-08-20T15:02:18.783Z,30
2017-08-20T15:03:27.754Z,30
2017-08-20T15:04:36.733Z,45
2017-08-20T15:05:45.691Z,55
2017-08-20T15:06:54.647Z,45
2017-08-20T15:08:03.603Z,55
2017-08-20T15:09:12.573Z,35
2017-08-20T15:10:21.537Z,45
2017-08-20T15:11:30.492Z,40
2017-08-20T15:12:39.442Z,30
2017-08-20T15:13:48.436Z,40
2017-08-20T15:14:57.718Z,35
2017-08-20T15:16:07.470Z,35
2017-08-20T15:17:16.639Z,35
2017-08-20T15:18:25.594Z,35
2017-08-20T15:19:34.552Z,35
2017-08-20T15:20:43.508Z,35
2017-08-20T15:21:52.491Z,35
2017-08-20T15:23:01.448Z,30
2017-08-20T15:24:10.730Z,35
2017-08-20T15:25:19.687Z,35
2017-08-20T15:26:28.645Z,35
2017-08-20T15:27:37.600Z,35
2017-08-20T15:28:46.564Z,35
2017-08-20T15:29:55.847Z,35
2017-08-20T15:31:04.811Z,35
2017-08-20T15:32:13.773Z,35
2017-08-20T15:33:22.737Z,35
2017-08-20T15:34:31.696Z,35
2017-08-20T15:35:40.657Z,35
2017-08-20T15:36:49.624Z,35
2017-08-20T15:37:58.592Z,35
2017-08-20T15:39:07.549Z,35
2017-08-20T15:40:16.516Z,30
2017-08-20T15:41:25.468Z,30
2017-08-20T15:42:34.424Z,30
2017-08-20T15:43:43.412Z,30
2017-08-20T15:44:52.378Z,30
2017-08-20T15:46:01.337Z,30
2017-08-20T15:47:10.299Z,30
2017-08-20T15:48:19.273Z,30
2017-08-20T15:49:28.232Z,25
2017-08-20T15:50:37.238Z,25
2017-08-20T15:51:46.308Z,25
2017-08-20T15:52:55.335Z,25
2017-08-20T15:54:04.296Z,25
2017-08-20T15:55:13.259Z,25
2017-08-20T15:56:22.224Z,25
2017-08-20T15:57:31.202Z,25
2017-08-20T15:58:40.282Z,25
2017-08-20T15:59:49.588Z,25
2017-08-20T16:00:58.569Z,25
2017-08-20T16:02:07.562Z,25
2017-08-20T16:03:16.555Z,20
2017-08-20T16:04:25.535Z,20
2017-08-20T16:05:34.856Z,20
2017-08-20T16:06:43.841Z,20
2017-08-20T16:07:52.833Z,20
2017-08-20T16:09:01.838Z,20
2017-08-20T16:10:11.158Z,20
2017-08-20T16:11:20.159Z,20
2017-08-20T16:12:29.477Z,20
2017-08-20T16:13:38.458Z,20
2017-08-20T16:14:47.442Z,20
2017-08-20T16:15:56.443Z,20
2017-08-20T16:17:05.426Z,20
2017-08-20T16:18:14.413Z,20
2017-08-20T16:19:23.392Z,20
2017-08-20T16:20:32.376Z,20
2017-08-20T16:21:41.353Z,15
2017-08-20T16:22:50.427Z,10
2017-08-20T16:23:59.416Z,10
2017-08-20T16:25:08.407Z,15
2017-08-20T16:26:17.379Z,15
2017-08-20T16:27:26.393Z,15
2017-08-20T16:28:35.373Z,10
2017-08-20T16:29:44.362Z,10
2017-08-20T16:30:53.350Z,10
2017-08-20T16:32:02.339Z,10
2017-08-20T16:33:11.318Z,10
2017-08-20T16:34:20.297Z,10
2017-08-20T16:35:29.278Z,5